sensor_id;sensor_type;location;lat;lon;timestamp;pressure;altitude;pressure_sealevel;temperature;humidity
25759;BME280;13604;52.496;13.456;2023-02-02T00:01:26;100386.78;;;3.04;89.43
25759;BME280;13604;52.496;13.456;2023-02-02T00:03:52;100391.28;;;3.06;89.35
25759;BME280;13604;52.496;13.456;2023-02-02T00:06:18;100402.41;;;3.19;88.47
25759;BME280;13604;52.496;13.456;2023-02-02T00:08:44;100385.88;;;3.15;89.15
25759;BME280;13604;52.496;13.456;2023-02-02T00:11:10;100385.88;;;3.15;88.87
25759;BME280;13604;52.496;13.456;2023-02-02T00:13:35;100372.88;;;3.13;88.72
25759;BME280;13604;52.496;13.456;2023-02-02T00:18:47;100384.66;;;3.10;88.24
25759;BME280;13604;52.496;13.456;2023-02-02T00:21:12;100358.72;;;3.07;88.43
25759;BME280;13604;52.496;13.456;2023-02-02T00:23:38;100361.00;;;3.16;87.66
25759;BME280;13604;52.496;13.456;2023-02-02T00:26:03;100345.19;;;2.98;88.29
25759;BME280;13604;52.496;13.456;2023-02-02T00:28:30;100375.47;;;3.13;87.75
25759;BME280;13604;52.496;13.456;2023-02-02T00:30:55;100383.09;;;3.37;87.23
25759;BME280;13604;52.496;13.456;2023-02-02T00:33:20;100404.09;;;3.43;87.04
25759;BME280;13604;52.496;13.456;2023-02-02T00:35:45;100369.72;;;3.43;86.69
25759;BME280;13604;52.496;13.456;2023-02-02T00:38:11;100324.16;;;3.28;86.62
25759;BME280;13604;52.496;13.456;2023-02-02T00:40:36;100343.16;;;3.30;87.25
25759;BME280;13604;52.496;13.456;2023-02-02T00:43:01;100342.38;;;3.31;87.75
25759;BME280;13604;52.496;13.456;2023-02-02T00:45:27;100332.19;;;3.33;87.35
25759;BME280;13604;52.496;13.456;2023-02-02T00:47:52;100352.69;;;3.45;86.93
25759;BME280;13604;52.496;13.456;2023-02-02T00:50:19;100332.84;;;3.30;87.10
25759;BME280;13604;52.496;13.456;2023-02-02T00:52:46;100364.44;;;3.28;89.04
25759;BME280;13604;52.496;13.456;2023-02-02T00:55:13;100364.38;;;3.40;88.81
25759;BME280;13604;52.496;13.456;2023-02-02T00:57:39;100361.47;;;3.35;89.28
25759;BME280;13604;52.496;13.456;2023-02-02T01:00:06;100366.53;;;3.34;89.73
25759;BME280;13604;52.496;13.456;2023-02-02T01:02:33;100382.78;;;3.33;90.55
25759;BME280;13604;52.496;13.456;2023-02-02T01:04:59;100378.41;;;3.31;90.07
25759;BME280;13604;52.496;13.456;2023-02-02T01:07:24;100343.00;;;3.16;90.86
25759;BME280;13604;52.496;13.456;2023-02-02T01:09:50;100365.09;;;3.25;91.50
25759;BME280;13604;52.496;13.456;2023-02-02T01:12:15;100389.78;;;3.35;91.94
25759;BME280;13604;52.496;13.456;2023-02-02T01:14:40;100348.91;;;3.01;93.22
25759;BME280;13604;52.496;13.456;2023-02-02T01:17:06;100396.25;;;3.17;93.71
25759;BME280;13604;52.496;13.456;2023-02-02T01:19:31;100385.97;;;3.17;95.04
25759;BME280;13604;52.496;13.456;2023-02-02T01:21:57;100353.25;;;3.02;94.80
25759;BME280;13604;52.496;13.456;2023-02-02T01:24:22;100349.03;;;2.91;95.89
25759;BME280;13604;52.496;13.456;2023-02-02T01:26:47;100356.25;;;2.83;96.73
25759;BME280;13604;52.496;13.456;2023-02-02T01:29:13;100388.16;;;2.99;97.86
25759;BME280;13604;52.496;13.456;2023-02-02T01:31:40;100390.38;;;3.06;97.49
25759;BME280;13604;52.496;13.456;2023-02-02T01:34:06;100388.50;;;3.03;97.64
25759;BME280;13604;52.496;13.456;2023-02-02T01:36:31;100218.25;;;1.96;98.97
25759;BME280;13604;52.496;13.456;2023-02-02T01:38:56;100376.34;;;2.89;99.42
25759;BME280;13604;52.496;13.456;2023-02-02T01:41:23;100381.16;;;2.84;100.00
25759;BME280;13604;52.496;13.456;2023-02-02T01:43:57;100385.25;;;2.94;99.92
25759;BME280;13604;52.496;13.456;2023-02-02T01:46:33;100384.84;;;2.88;100.00
25759;BME280;13604;52.496;13.456;2023-02-02T01:49:14;100342.41;;;2.69;100.00
25759;BME280;13604;52.496;13.456;2023-02-02T01:54:56;100383.28;;;2.90;99.15
25759;BME280;13604;52.496;13.456;2023-02-02T01:57:16;100385.81;;;3.02;98.29
25759;BME280;13604;52.496;13.456;2023-02-02T01:59:45;100376.00;;;2.96;98.95
25759;BME280;13604;52.496;13.456;2023-02-02T02:02:12;100400.47;;;3.03;99.25
25759;BME280;13604;52.496;13.456;2023-02-02T02:04:37;100389.63;;;2.95;99.53
25759;BME280;13604;52.496;13.456;2023-02-02T02:07:03;100396.97;;;3.02;99.85
25759;BME280;13604;52.496;13.456;2023-02-02T02:09:29;100400.91;;;2.97;100.00
25759;BME280;13604;52.496;13.456;2023-02-02T02:11:55;100416.91;;;3.05;100.00
25759;BME280;13604;52.496;13.456;2023-02-02T02:14:21;100388.94;;;2.98;100.00
25759;BME280;13604;52.496;13.456;2023-02-02T02:17:30;100386.84;;;2.92;99.96
25759;BME280;13604;52.496;13.456;2023-02-02T02:23:25;100384.28;;;2.92;99.72
25759;BME280;13604;52.496;13.456;2023-02-02T02:26:52;100419.53;;;3.18;99.32
25759;BME280;13604;52.496;13.456;2023-02-02T02:29:21;100425.00;;;3.23;97.99
25759;BME280;13604;52.496;13.456;2023-02-02T02:34:52;100423.63;;;3.28;96.46
25759;BME280;13604;52.496;13.456;2023-02-02T02:37:41;100410.16;;;3.32;95.80
25759;BME280;13604;52.496;13.456;2023-02-02T02:42:38;100440.97;;;3.56;94.92
25759;BME280;13604;52.496;13.456;2023-02-02T02:45:07;100418.75;;;3.44;95.29
25759;BME280;13604;52.496;13.456;2023-02-02T02:47:35;100427.34;;;3.45;95.33
25759;BME280;13604;52.496;13.456;2023-02-02T02:50:01;100400.50;;;3.41;93.32
25759;BME280;13604;52.496;13.456;2023-02-02T02:52:27;100434.91;;;3.55;93.67
25759;BME280;13604;52.496;13.456;2023-02-02T02:54:54;100434.25;;;3.58;93.43
25759;BME280;13604;52.496;13.456;2023-02-02T03:02:41;100428.03;;;3.67;92.63
25759;BME280;13604;52.496;13.456;2023-02-02T03:10:12;100462.84;;;3.87;91.67
25759;BME280;13604;52.496;13.456;2023-02-02T03:12:49;100444.91;;;3.76;92.07
25759;BME280;13604;52.496;13.456;2023-02-02T03:15:15;100471.41;;;3.86;91.99
25759;BME280;13604;52.496;13.456;2023-02-02T03:17:42;100481.22;;;3.92;91.40
25759;BME280;13604;52.496;13.456;2023-02-02T03:20:08;100471.19;;;3.83;91.36
25759;BME280;13604;52.496;13.456;2023-02-02T03:22:34;100481.78;;;3.88;91.79
25759;BME280;13604;52.496;13.456;2023-02-02T03:24:59;100457.78;;;3.76;91.15
25759;BME280;13604;52.496;13.456;2023-02-02T03:27:25;100499.81;;;3.88;91.39
25759;BME280;13604;52.496;13.456;2023-02-02T03:29:51;100482.75;;;3.77;91.30
25759;BME280;13604;52.496;13.456;2023-02-02T03:32:16;100471.72;;;3.66;91.42
25759;BME280;13604;52.496;13.456;2023-02-02T03:34:42;100505.13;;;3.78;91.05
25759;BME280;13604;52.496;13.456;2023-02-02T03:37:07;100493.63;;;3.73;91.63
25759;BME280;13604;52.496;13.456;2023-02-02T03:39:32;100480.63;;;3.71;91.60
25759;BME280;13604;52.496;13.456;2023-02-02T03:41:58;100526.72;;;3.80;92.28
25759;BME280;13604;52.496;13.456;2023-02-02T03:44:23;100528.63;;;3.82;91.59
25759;BME280;13604;52.496;13.456;2023-02-02T03:46:53;100550.25;;;3.84;91.78
25759;BME280;13604;52.496;13.456;2023-02-02T03:49:19;100522.44;;;3.67;92.64
25759;BME280;13604;52.496;13.456;2023-02-02T03:51:44;100557.56;;;3.78;92.72
25759;BME280;13604;52.496;13.456;2023-02-02T03:54:10;100532.53;;;3.64;92.37
25759;BME280;13604;52.496;13.456;2023-02-02T03:56:35;100505.81;;;3.50;92.19
25759;BME280;13604;52.496;13.456;2023-02-02T03:59:00;100545.97;;;3.60;92.74
25759;BME280;13604;52.496;13.456;2023-02-02T04:01:27;100568.75;;;3.79;92.01
25759;BME280;13604;52.496;13.456;2023-02-02T04:03:53;100564.38;;;3.78;91.94
25759;BME280;13604;52.496;13.456;2023-02-02T04:06:19;100582.31;;;3.76;92.69
25759;BME280;13604;52.496;13.456;2023-02-02T04:08:44;100566.88;;;3.64;93.11
25759;BME280;13604;52.496;13.456;2023-02-02T04:11:10;100563.25;;;3.49;93.73
25759;BME280;13604;52.496;13.456;2023-02-02T04:13:35;100576.34;;;3.52;93.16
25759;BME280;13604;52.496;13.456;2023-02-02T04:16:01;100598.28;;;3.59;93.32
25759;BME280;13604;52.496;13.456;2023-02-02T04:18:26;100550.41;;;3.37;92.83
25759;BME280;13604;52.496;13.456;2023-02-02T04:20:59;100593.34;;;3.62;92.07
25759;BME280;13604;52.496;13.456;2023-02-02T04:23:26;100627.19;;;3.80;92.30
25759;BME280;13604;52.496;13.456;2023-02-02T04:25:51;100608.22;;;3.66;91.73
25759;BME280;13604;52.496;13.456;2023-02-02T04:28:17;100622.53;;;3.74;91.59
25759;BME280;13604;52.496;13.456;2023-02-02T04:30:42;100621.19;;;3.67;91.24
25759;BME280;13604;52.496;13.456;2023-02-02T04:33:08;100630.84;;;3.70;91.24
25759;BME280;13604;52.496;13.456;2023-02-02T04:35:33;100636.06;;;3.72;91.42
25759;BME280;13604;52.496;13.456;2023-02-02T04:37:58;100638.63;;;3.72;92.05
25759;BME280;13604;52.496;13.456;2023-02-02T04:40:24;100634.19;;;3.69;92.04
25759;BME280;13604;52.496;13.456;2023-02-02T04:42:49;100636.44;;;3.64;91.27
25759;BME280;13604;52.496;13.456;2023-02-02T04:45:15;100635.53;;;3.64;91.28
25759;BME280;13604;52.496;13.456;2023-02-02T04:47:40;100612.94;;;3.48;91.71
25759;BME280;13604;52.496;13.456;2023-02-02T04:50:06;100595.69;;;3.47;91.08
25759;BME280;13604;52.496;13.456;2023-02-02T04:52:31;100617.66;;;3.54;90.87
25759;BME280;13604;52.496;13.456;2023-02-02T04:54:56;100649.84;;;3.72;90.75
25759;BME280;13604;52.496;13.456;2023-02-02T04:57:22;100658.84;;;3.65;91.01
25759;BME280;13604;52.496;13.456;2023-02-02T04:59:47;100635.22;;;3.59;90.57
25759;BME280;13604;52.496;13.456;2023-02-02T05:02:12;100672.56;;;3.78;90.56
25759;BME280;13604;52.496;13.456;2023-02-02T05:04:37;100665.84;;;3.80;90.24
25759;BME280;13604;52.496;13.456;2023-02-02T05:07:03;100662.97;;;3.75;90.52
25759;BME280;13604;52.496;13.456;2023-02-02T05:09:28;100673.94;;;3.73;90.33
25759;BME280;13604;52.496;13.456;2023-02-02T05:11:53;100661.63;;;3.68;90.60
25759;BME280;13604;52.496;13.456;2023-02-02T05:14:19;100605.69;;;3.19;91.74
25759;BME280;13604;52.496;13.456;2023-02-02T05:16:44;100712.09;;;3.66;92.83
25759;BME280;13604;52.496;13.456;2023-02-02T05:19:10;100712.56;;;3.61;93.66
25759;BME280;13604;52.496;13.456;2023-02-02T05:21:36;100667.91;;;3.37;93.96
25759;BME280;13604;52.496;13.456;2023-02-02T05:24:01;100691.75;;;3.46;93.67
25759;BME280;13604;52.496;13.456;2023-02-02T05:26:28;100710.78;;;3.48;94.12
25759;BME280;13604;52.496;13.456;2023-02-02T05:28:55;100735.06;;;3.52;94.55
25759;BME280;13604;52.496;13.456;2023-02-02T05:31:20;100726.94;;;3.45;95.62
25759;BME280;13604;52.496;13.456;2023-02-02T05:33:46;100719.97;;;3.44;94.72
25759;BME280;13604;52.496;13.456;2023-02-02T05:36:11;100703.19;;;3.38;93.96
25759;BME280;13604;52.496;13.456;2023-02-02T05:38:36;100715.06;;;3.36;94.53
25759;BME280;13604;52.496;13.456;2023-02-02T05:41:02;100700.91;;;3.19;94.86
25759;BME280;13604;52.496;13.456;2023-02-02T05:43:29;100750.41;;;3.50;93.49
25759;BME280;13604;52.496;13.456;2023-02-02T05:45:55;100751.88;;;3.46;93.40
25759;BME280;13604;52.496;13.456;2023-02-02T05:48:21;100761.94;;;3.55;92.74
25759;BME280;13604;52.496;13.456;2023-02-02T05:50:58;100751.09;;;3.47;92.09
25759;BME280;13604;52.496;13.456;2023-02-02T05:53:25;100747.53;;;3.45;91.44
25759;BME280;13604;52.496;13.456;2023-02-02T05:55:51;100746.28;;;3.52;91.72
25759;BME280;13604;52.496;13.456;2023-02-02T05:58:16;100768.00;;;3.67;91.03
25759;BME280;13604;52.496;13.456;2023-02-02T06:00:42;100766.53;;;3.59;91.41
25759;BME280;13604;52.496;13.456;2023-02-02T06:03:07;100711.56;;;3.23;90.77
25759;BME280;13604;52.496;13.456;2023-02-02T06:05:32;100778.53;;;3.59;90.57
25759;BME280;13604;52.496;13.456;2023-02-02T06:07:57;100789.94;;;3.50;90.55
25759;BME280;13604;52.496;13.456;2023-02-02T06:10:23;100783.34;;;3.66;89.44
25759;BME280;13604;52.496;13.456;2023-02-02T06:12:48;100787.50;;;3.64;88.81
25759;BME280;13604;52.496;13.456;2023-02-02T06:15:13;100793.41;;;3.63;88.32
25759;BME280;13604;52.496;13.456;2023-02-02T06:17:39;100796.88;;;3.63;87.99
25759;BME280;13604;52.496;13.456;2023-02-02T06:20:04;100789.25;;;3.65;87.81
25759;BME280;13604;52.496;13.456;2023-02-02T06:22:31;100771.81;;;3.49;87.98
25759;BME280;13604;52.496;13.456;2023-02-02T06:24:56;100793.19;;;3.60;88.16
25759;BME280;13604;52.496;13.456;2023-02-02T06:27:21;100797.00;;;3.65;88.10
25759;BME280;13604;52.496;13.456;2023-02-02T06:29:47;100802.38;;;3.56;88.51
25759;BME280;13604;52.496;13.456;2023-02-02T06:32:12;100803.25;;;3.57;87.87
25759;BME280;13604;52.496;13.456;2023-02-02T06:34:37;100826.59;;;3.70;88.05
25759;BME280;13604;52.496;13.456;2023-02-02T06:37:03;100814.13;;;3.53;87.65
25759;BME280;13604;52.496;13.456;2023-02-02T06:39:28;100827.00;;;3.64;87.27
25759;BME280;13604;52.496;13.456;2023-02-02T06:41:53;100831.03;;;3.61;87.02
25759;BME280;13604;52.496;13.456;2023-02-02T06:44:20;100830.16;;;3.60;87.00
25759;BME280;13604;52.496;13.456;2023-02-02T06:46:45;100817.47;;;3.52;86.29
25759;BME280;13604;52.496;13.456;2023-02-02T06:49:11;100862.41;;;3.67;87.01
25759;BME280;13604;52.496;13.456;2023-02-02T06:51:36;100845.25;;;3.56;87.01
25759;BME280;13604;52.496;13.456;2023-02-02T06:54:01;100783.84;;;3.15;87.21
25759;BME280;13604;52.496;13.456;2023-02-02T06:56:28;100860.72;;;3.56;87.13
25759;BME280;13604;52.496;13.456;2023-02-02T06:58:53;100875.19;;;3.65;86.81
25759;BME280;13604;52.496;13.456;2023-02-02T07:01:19;100852.97;;;3.44;86.29
25759;BME280;13604;52.496;13.456;2023-02-02T07:03:47;100871.38;;;3.60;86.75
25759;BME280;13604;52.496;13.456;2023-02-02T07:06:19;100860.34;;;3.39;87.20
25759;BME280;13604;52.496;13.456;2023-02-02T07:08:46;100887.25;;;3.66;86.07
25759;BME280;13604;52.496;13.456;2023-02-02T07:11:11;100870.44;;;3.48;85.46
25759;BME280;13604;52.496;13.456;2023-02-02T07:13:37;100867.50;;;3.43;84.67
25759;BME280;13604;52.496;13.456;2023-02-02T07:16:03;100845.66;;;3.38;83.35
25759;BME280;13604;52.496;13.456;2023-02-02T07:18:29;100891.03;;;3.48;83.09
25759;BME280;13604;52.496;13.456;2023-02-02T07:20:57;100919.63;;;3.63;82.60
25759;BME280;13604;52.496;13.456;2023-02-02T07:23:23;100891.03;;;3.48;82.17
25759;BME280;13604;52.496;13.456;2023-02-02T07:25:48;100912.88;;;3.65;80.11
25759;BME280;13604;52.496;13.456;2023-02-02T07:28:13;100912.78;;;3.63;80.10
25759;BME280;13604;52.496;13.456;2023-02-02T07:30:39;100942.28;;;3.79;79.23
25759;BME280;13604;52.496;13.456;2023-02-02T07:33:04;100944.03;;;3.68;79.65
25759;BME280;13604;52.496;13.456;2023-02-02T07:35:29;100944.38;;;3.73;79.67
25759;BME280;13604;52.496;13.456;2023-02-02T07:37:55;100919.91;;;3.44;80.09
25759;BME280;13604;52.496;13.456;2023-02-02T07:40:20;100944.38;;;3.39;80.57
25759;BME280;13604;52.496;13.456;2023-02-02T07:42:46;100944.16;;;3.36;80.73
25759;BME280;13604;52.496;13.456;2023-02-02T07:45:14;100931.81;;;3.31;80.61
25759;BME280;13604;52.496;13.456;2023-02-02T07:47:40;100935.97;;;3.29;80.71
25759;BME280;13604;52.496;13.456;2023-02-02T07:50:05;100942.16;;;3.43;80.80
25759;BME280;13604;52.496;13.456;2023-02-02T07:52:31;100939.81;;;3.46;81.45
25759;BME280;13604;52.496;13.456;2023-02-02T07:54:56;100941.31;;;3.55;80.67
25759;BME280;13604;52.496;13.456;2023-02-02T07:57:21;100959.25;;;3.65;80.62
25759;BME280;13604;52.496;13.456;2023-02-02T07:59:47;100955.78;;;3.64;80.13
25759;BME280;13604;52.496;13.456;2023-02-02T08:02:14;100985.28;;;3.80;80.07
25759;BME280;13604;52.496;13.456;2023-02-02T08:04:39;100949.75;;;3.64;80.85
25759;BME280;13604;52.496;13.456;2023-02-02T08:07:05;100988.69;;;4.02;80.85
25759;BME280;13604;52.496;13.456;2023-02-02T08:09:30;100988.66;;;4.24;80.16
25759;BME280;13604;52.496;13.456;2023-02-02T08:11:57;100964.75;;;4.03;81.38
25759;BME280;13604;52.496;13.456;2023-02-02T08:14:25;100994.34;;;4.20;81.45
25759;BME280;13604;52.496;13.456;2023-02-02T08:16:51;100979.75;;;4.21;81.31
25759;BME280;13604;52.496;13.456;2023-02-02T08:19:16;101004.25;;;4.38;81.09
25759;BME280;13604;52.496;13.456;2023-02-02T08:21:41;100980.56;;;4.32;81.19
25759;BME280;13604;52.496;13.456;2023-02-02T08:24:07;101005.34;;;4.53;80.83
25759;BME280;13604;52.496;13.456;2023-02-02T08:26:32;100976.44;;;4.57;80.12
25759;BME280;13604;52.496;13.456;2023-02-02T08:29:00;100995.94;;;4.77;80.04
25759;BME280;13604;52.496;13.456;2023-02-02T08:31:31;100997.38;;;4.86;80.26
25759;BME280;13604;52.496;13.456;2023-02-02T08:33:57;101013.28;;;5.15;79.44
25759;BME280;13604;52.496;13.456;2023-02-02T08:36:24;100992.53;;;5.39;77.93
25759;BME280;13604;52.496;13.456;2023-02-02T08:38:50;101015.66;;;6.00;74.82
25759;BME280;13604;52.496;13.456;2023-02-02T08:41:18;101009.28;;;5.69;75.38
25759;BME280;13604;52.496;13.456;2023-02-02T08:43:44;100954.72;;;5.40;75.99
25759;BME280;13604;52.496;13.456;2023-02-02T08:46:11;101024.34;;;5.63;76.47
25759;BME280;13604;52.496;13.456;2023-02-02T08:48:37;101014.50;;;5.58;76.59
25759;BME280;13604;52.496;13.456;2023-02-02T08:51:04;100997.75;;;5.64;75.98
25759;BME280;13604;52.496;13.456;2023-02-02T08:53:30;101035.91;;;5.68;75.74
25759;BME280;13604;52.496;13.456;2023-02-02T08:56:08;101050.03;;;5.74;75.38
25759;BME280;13604;52.496;13.456;2023-02-02T08:58:33;101004.78;;;5.42;75.60
25759;BME280;13604;52.496;13.456;2023-02-02T09:01:07;101053.94;;;5.80;75.64
25759;BME280;13604;52.496;13.456;2023-02-02T09:03:33;101037.16;;;6.51;72.48
25759;BME280;13604;52.496;13.456;2023-02-02T09:06:03;101010.47;;;7.05;69.38
25759;BME280;13604;52.496;13.456;2023-02-02T09:08:29;101022.16;;;8.11;65.61
25759;BME280;13604;52.496;13.456;2023-02-02T09:10:54;101027.25;;;8.10;64.48
25759;BME280;13604;52.496;13.456;2023-02-02T09:13:19;101026.31;;;7.80;64.51
25759;BME280;13604;52.496;13.456;2023-02-02T09:15:45;101039.13;;;7.22;66.65
25759;BME280;13604;52.496;13.456;2023-02-02T09:18:10;101052.69;;;6.51;69.91
25759;BME280;13604;52.496;13.456;2023-02-02T09:20:35;101065.03;;;6.41;70.43
25759;BME280;13604;52.496;13.456;2023-02-02T09:23:01;101049.00;;;6.47;70.19
25759;BME280;13604;52.496;13.456;2023-02-02T09:25:26;101057.59;;;6.73;69.41
25759;BME280;13604;52.496;13.456;2023-02-02T09:27:52;101095.16;;;6.93;68.94
25759;BME280;13604;52.496;13.456;2023-02-02T09:30:17;101055.00;;;6.73;68.84
25759;BME280;13604;52.496;13.456;2023-02-02T09:32:43;101053.31;;;7.00;67.16
25759;BME280;13604;52.496;13.456;2023-02-02T09:35:09;101076.50;;;7.12;66.78
25759;BME280;13604;52.496;13.456;2023-02-02T09:37:34;101052.69;;;7.59;65.35
25759;BME280;13604;52.496;13.456;2023-02-02T09:40:00;101100.81;;;7.27;65.75
25759;BME280;13604;52.496;13.456;2023-02-02T09:42:43;101088.88;;;7.03;65.89
25759;BME280;13604;52.496;13.456;2023-02-02T09:45:19;101087.94;;;7.02;66.39
25759;BME280;13604;52.496;13.456;2023-02-02T09:48:09;101116.75;;;6.93;67.30
25759;BME280;13604;52.496;13.456;2023-02-02T09:50:53;101115.34;;;6.72;68.21
25759;BME280;13604;52.496;13.456;2023-02-02T09:53:29;101124.06;;;6.60;68.24
25759;BME280;13604;52.496;13.456;2023-02-02T09:56:00;101131.47;;;6.42;68.44
25759;BME280;13604;52.496;13.456;2023-02-02T09:58:49;101119.81;;;6.36;69.13
25759;BME280;13604;52.496;13.456;2023-02-02T10:01:21;101127.09;;;6.93;66.00
25759;BME280;13604;52.496;13.456;2023-02-02T10:06:42;101135.47;;;6.12;68.81
25759;BME280;13604;52.496;13.456;2023-02-02T10:09:46;101121.31;;;6.07;68.94
25759;BME280;13604;52.496;13.456;2023-02-02T10:15:20;101119.19;;;6.52;67.34
25759;BME280;13604;52.496;13.456;2023-02-02T10:18:11;101114.66;;;6.36;67.92
25759;BME280;13604;52.496;13.456;2023-02-02T10:20:43;101128.28;;;6.08;69.39
25759;BME280;13604;52.496;13.456;2023-02-02T10:23:55;101136.63;;;6.04;70.39
25759;BME280;13604;52.496;13.456;2023-02-02T10:29:14;101144.66;;;6.20;69.93
25759;BME280;13604;52.496;13.456;2023-02-02T10:40:18;101145.38;;;11.00;51.47
25759;BME280;13604;52.496;13.456;2023-02-02T10:42:58;101147.09;;;11.36;48.04
25759;BME280;13604;52.496;13.456;2023-02-02T10:45:46;101147.31;;;11.58;45.95
25759;BME280;13604;52.496;13.456;2023-02-02T10:48:16;101149.41;;;11.85;45.27
25759;BME280;13604;52.496;13.456;2023-02-02T10:50:46;101149.84;;;10.68;46.48
25759;BME280;13604;52.496;13.456;2023-02-02T10:53:13;101136.81;;;11.39;45.21
25759;BME280;13604;52.496;13.456;2023-02-02T10:55:50;101157.31;;;11.87;45.31
25759;BME280;13604;52.496;13.456;2023-02-02T10:58:28;101161.03;;;12.10;44.88
25759;BME280;13604;52.496;13.456;2023-02-02T11:00:55;101157.50;;;11.00;46.78
25759;BME280;13604;52.496;13.456;2023-02-02T11:03:26;101164.00;;;10.08;48.82
25759;BME280;13604;52.496;13.456;2023-02-02T11:05:52;101148.44;;;9.45;49.92
25759;BME280;13604;52.496;13.456;2023-02-02T11:08:39;101177.56;;;8.78;52.66
25759;BME280;13604;52.496;13.456;2023-02-02T11:11:17;101133.53;;;7.67;54.27
25759;BME280;13604;52.496;13.456;2023-02-02T11:16:34;101149.41;;;8.56;52.95
25759;BME280;13604;52.496;13.456;2023-02-02T11:18:59;101150.53;;;8.18;53.37
25759;BME280;13604;52.496;13.456;2023-02-02T11:21:25;101195.34;;;10.26;48.16
25759;BME280;13604;52.496;13.456;2023-02-02T11:23:53;101188.94;;;11.03;45.33
25759;BME280;13604;52.496;13.456;2023-02-02T11:26:21;101193.81;;;11.31;45.78
25759;BME280;13604;52.496;13.456;2023-02-02T11:28:47;101201.56;;;11.30;45.01
25759;BME280;13604;52.496;13.456;2023-02-02T11:31:37;101181.47;;;11.45;44.47
25759;BME280;13604;52.496;13.456;2023-02-02T11:34:22;101186.91;;;11.32;45.09
25759;BME280;13604;52.496;13.456;2023-02-02T11:39:36;101198.94;;;15.04;38.09
25759;BME280;13604;52.496;13.456;2023-02-02T11:42:19;101206.09;;;16.49;37.01
25759;BME280;13604;52.496;13.456;2023-02-02T11:44:48;101188.91;;;18.02;34.28
25759;BME280;13604;52.496;13.456;2023-02-02T11:47:25;101198.50;;;17.98;33.11
25759;BME280;13604;52.496;13.456;2023-02-02T11:49:52;101174.03;;;16.00;34.67
25759;BME280;13604;52.496;13.456;2023-02-02T11:52:21;101210.06;;;12.95;40.60
25759;BME280;13604;52.496;13.456;2023-02-02T11:54:52;101224.75;;;10.56;45.88
25759;BME280;13604;52.496;13.456;2023-02-02T11:57:21;101210.22;;;10.12;47.56
25759;BME280;13604;52.496;13.456;2023-02-02T12:00:10;101171.00;;;9.15;49.12
25759;BME280;13604;52.496;13.456;2023-02-02T12:02:47;101211.75;;;9.01;50.48
25759;BME280;13604;52.496;13.456;2023-02-02T12:05:32;101220.03;;;8.51;51.77
25759;BME280;13604;52.496;13.456;2023-02-02T12:07:58;101239.97;;;8.10;53.74
25759;BME280;13604;52.496;13.456;2023-02-02T12:10:26;101202.47;;;8.05;54.54
25759;BME280;13604;52.496;13.456;2023-02-02T12:18:44;101243.63;;;6.06;65.95
25759;BME280;13604;52.496;13.456;2023-02-02T12:21:32;101267.00;;;6.07;66.88
25759;BME280;13604;52.496;13.456;2023-02-02T12:26:55;101254.75;;;5.93;68.83
25759;BME280;13604;52.496;13.456;2023-02-02T12:44:54;101251.78;;;8.46;59.70
25759;BME280;13604;52.496;13.456;2023-02-02T12:50:12;101263.88;;;13.73;43.87
25759;BME280;13604;52.496;13.456;2023-02-02T12:55:24;101290.63;;;15.51;40.04
25759;BME280;13604;52.496;13.456;2023-02-02T12:58:01;101293.75;;;17.10;37.12
25759;BME280;13604;52.496;13.456;2023-02-02T13:00:43;101283.88;;;17.35;35.70
25759;BME280;13604;52.496;13.456;2023-02-02T13:03:37;101287.16;;;17.96;33.14
25759;BME280;13604;52.496;13.456;2023-02-02T13:09:13;101297.91;;;15.60;35.41
25759;BME280;13604;52.496;13.456;2023-02-02T13:11:50;101275.50;;;18.66;34.32
25759;BME280;13604;52.496;13.456;2023-02-02T13:14:24;101284.00;;;21.40;28.10
25759;BME280;13604;52.496;13.456;2023-02-02T13:17:13;101306.09;;;21.39;27.58
25759;BME280;13604;52.496;13.456;2023-02-02T13:19:49;101314.19;;;22.80;26.13
25759;BME280;13604;52.496;13.456;2023-02-02T13:22:25;101309.09;;;23.83;24.26
25759;BME280;13604;52.496;13.456;2023-02-02T13:24:54;101318.84;;;23.92;24.73
25759;BME280;13604;52.496;13.456;2023-02-02T13:27:22;101327.69;;;23.86;24.07
25759;BME280;13604;52.496;13.456;2023-02-02T13:30:16;101337.16;;;22.70;25.24
25759;BME280;13604;52.496;13.456;2023-02-02T13:32:45;101329.69;;;22.09;25.45
25759;BME280;13604;52.496;13.456;2023-02-02T13:35:18;101346.94;;;21.58;26.12
25759;BME280;13604;52.496;13.456;2023-02-02T13:37:52;101355.94;;;20.30;26.84
25759;BME280;13604;52.496;13.456;2023-02-02T13:40:27;101359.00;;;19.05;28.88
25759;BME280;13604;52.496;13.456;2023-02-02T13:48:08;101368.53;;;21.99;25.61
25759;BME280;13604;52.496;13.456;2023-02-02T13:50:46;101348.56;;;22.54;24.28
25759;BME280;13604;52.496;13.456;2023-02-02T13:56:37;101379.03;;;23.48;24.78
25759;BME280;13604;52.496;13.456;2023-02-02T14:01:48;101392.19;;;25.16;22.29
25759;BME280;13604;52.496;13.456;2023-02-02T14:04:24;101376.13;;;25.23;21.29
25759;BME280;13604;52.496;13.456;2023-02-02T14:07:03;101396.44;;;25.53;20.89
25759;BME280;13604;52.496;13.456;2023-02-02T14:09:34;101385.09;;;23.01;22.38
25759;BME280;13604;52.496;13.456;2023-02-02T14:12:04;101415.66;;;21.42;24.17
25759;BME280;13604;52.496;13.456;2023-02-02T14:14:32;101410.66;;;19.80;25.50
25759;BME280;13604;52.496;13.456;2023-02-02T14:17:07;101421.59;;;19.10;26.38
25759;BME280;13604;52.496;13.456;2023-02-02T14:19:58;101435.97;;;19.71;25.71
25759;BME280;13604;52.496;13.456;2023-02-02T14:22:37;101435.09;;;19.26;26.06
25759;BME280;13604;52.496;13.456;2023-02-02T14:25:37;101438.69;;;17.48;27.79
25759;BME280;13604;52.496;13.456;2023-02-02T14:27:56;101424.53;;;16.30;29.30
25759;BME280;13604;52.496;13.456;2023-02-02T14:30:26;101451.78;;;15.80;30.05